Tender Notices

Tenders for the various  departments of  Mormugao Port Trust are published under each section as follows:

General administrative Department

General administrative Department

Sr. No.Date of UploadTender TitleTender No.Type of TenderEstimated Cost (Rs.) Bid Submission Closing Date and TimeTender Opening Date and TimeDownload NIT
Finance Department

Finance-Department

Sr. No.Date of UploadTender TitleTender No.Type of TenderEstimated Cost (Rs.) Bid Submission Closing Date and TimeTender Opening Date and TimeDownload NIT
Medical Department

Medical-Department

List of Medicines Projected for Procurement by Medical Department for the year 2020-21, 22 & 23

1. List of Medicines
Sr. No.Date of UploadTender TitleTender No.Type of TenderEstimated Cost (Rs.) Bid Submission Closing Date and TimeTender Opening Date and TimeDownload NIT
6127/05/2022 Ethynyl Estradiol+CyproteroneAcetate Tab. MD/PS/357 Enquiry 15/06/2022 at 15.00 hrs 15/06/2022 at 15.30 hrs
6027/05/2022 Luliconazole 1% lotion. MD/PS/354 Enquiry 15/06/2022 at 15.00 hrs 15/06/2022 at 15.30 hrs
5927/05/2022 Lubricating Eye Drops (Carboxymethyl Cellulose) MD/PS/327 Enquiry 10/06/2022 at 15.00 hrs 10/06/2022 at 15.30 hrs
5827/05/2022 Tab. Citicholine 500mg + Piracetam 400-500mg. MD/PS/349 Enquiry 10/06/2022 at 15.00 hrs 10/06/2022 at 15.30 hrs
5727/05/2022 Inj. Midazolam 1mg/ml 5ml vials. MD/PS/353 Enquiry 10/06/2022 at 15.00 hrs 10/06/2022 at 15.30 hrs
5627/05/2022 Cefixime syp 50mg/5ml in 30ml bottle. MD/PS/351 Enquiry 10/06/2022 at 15.00 hrs 10/06/2022 at 15.30 hrs
5527/05/2022 Tab. Rosuvastatin 5mg. MD/PS/344 Enquiry 08/06/2022 at 15.00 hrs 08/06/2022 at 15.30 hrs
5427/05/2022 Fluricasone 50mg nasal spray. MD/PS/356 Enquiry 08/06/2022 at 15.00 hrs 08/06/2022 at 15.30 hrs
5327/05/2022 0.9% Normal Saline 100ml glass bottles. MD/PS/355 Enquiry 08/06/2022 at 15.00 hrs 08/06/2022 at 15.30 hrs
5226/05/2022 1) Cardiac Jelly 250ml jar. 2) Electrodes for ECG Adult. 3) Disposable Skin Stapler(35 Staples) With Gun. MD/PS/338 Enquiry 10/06/2022 at 15.00 hrs 10/06/2022 at 15.30 hrs
5126/05/2022 1) Sterile Disposable Eye Drapes (70cm x 70cm with incise area of 7 x 9cm). 2) 2.8mm Keratone Micro Surgical Full Handle Knife Blades (Opthalmic). 3) Polyprolene Monofilament Non-Absorable Surgical Suture N0 2-0,841/844, 30mm Half Circle Round Bodied. 4) Sterile Disposable Gloves Surgical Size 7 ½”. (Powder Free) MD/PS/350 Enquiry 03/06/2022 at 15.00 hrs 03/06/2022 at 15.30 hrs
5026/05/2022 Tab. Ormiloxifene 60mg. MD/PS/352 Enquiry 03/06/2022 at 15.00 hrs 03/06/2022 at 15.30 hrs
4926/05/2022 Disposable Nitrile powder free Examinations Gloves ( Medium Size), Preferably Navy Blue or any other colour subject to approval. MD/PS/339 Enquiry 10/06/2022 at 15.00 hrs 10/06/2022 at 15.30 hrs
4826/05/2022 Dasmularishta (Pack of 200ml). MD/Stores/346 Enquiry 10/06/2022 at 15.00 hrs 10/06/2022 at 15.30 hrs
4726/05/2022 Bhunimbadi Kwath (Pack of 200ml). MD/Stores/345 Enquiry 10/06/2022 at 15.00 hrs 10/06/2022 at 15.30 hrs
4626/05/2022 Tab. Phenytoin Sodium 100mg. MD/PS/343 Enquiry 10/06/2022 at 15.00 hrs 10/06/2022 at 15.30 hrs
4526/05/2022 Nimba Taila(Kadu Nimbu)/Paribhadra Taila(Pack of 100ml) MD/Stores/347 Enquiry 03/06/2022 at 15.00 hrs 03/06/2022 at 15.30 hrs
4426/05/2022 Tab. Telmisartan 20mg. MD/PS/358 Enquiry 03/06/2022 at 15.00 hrs 03/06/2022 at 15.30 hrs
4326/05/2022 Inj. Propofol 1% Suspension 20ml Vial. MD/PS/359 Enquiry 03/06/2022 at 15.00 hrs 03/06/2022 at 15.30 hrs
4226/05/2022 CPM 2-4mg + Paracetamol 500mg + Phenyl Ephrine 5-10mg tabs without codeine. MD/PS/324 Enquiry 03/06/2022 at 15.00 hrs 03/06/2022 at 15.30 hrs
4126/05/2022 Metronidazole IV Bottle 500mg/100ml. MD/PS/326 Enquiry 01/06/2022 at 15.00 hrs 01/06/2022 at 15.30 hrs
4026/05/2022 Bronchodilator with mucolytic cough syrup. Salbutamol(1-2mg) +Ambroxyl (15-30mg) 60-100ml. MD/PS/325 Enquiry 01/06/2022 at 15.00 hrs 01/06/2022 at 15.30 hrs
3925/05/2022 1) Albumin Test Kit (Pack of 1x150ml / 1x75ml). 2) Troponin I Card. MD/PS/341 Enquiry 03/06/2022 at 15.00 hrs 03/06/2022 at 15.30 hrs
3825/05/2022 1) Prothrombin Time Test Kit(Uniplastin) With Citrate Anticoagulent in 5ml. 2) Urine Test Kit-10 Parameters (Pack Size 100 strips) MD/PS/340 Enquiry 03/06/2022 at 15.00 hrs 03/06/2022 at 15.30 hrs
3724/05/2022 Lancing Device. MD/PS/309 Enquiry 03/06/2022 at 15.00 hrs 03/06/2022 at 15.30 hrs
3624/05/2022 Glucose Strips (Pack of 50/100 strips). MD/PS/305 Enquiry 03/06/2022 at 15.00 hrs 03/06/2022 at 15.30 hrs
3524/05/2022 Aceclofenac 100mg + Paracetamol 500mg. MD/PS/337 Enquiry 03/06/2022 at 15.00 hrs 03/06/2022 at 15.30 hrs
3424/05/2022 Gatifloxacin EYE drops 0.3%. MD/PS/336 Enquiry 01/06/2022 at 15.00 hrs 01/06/2022 at 15.30 hrs
3324/05/2022 Potassium iodide+sodium chl+Calcium chlo. MD/PS/335 Enquiry 01/06/2022 at 15.00 hrs 01/06/2022 at 15.30 hrs
3224/05/2022 Tab. Silodosin 4mg. MD/PS/334 Enquiry 01/06/2022 at 15.00 hrs 01/06/2022 at 15.30 hrs
3124/05/2022 Tab. Silodosin 4mg. MD/PS/333 Enquiry 01/06/2022 at 15.00 hrs 01/06/2022 at 15.30 hrs
3024/05/2022 Benzyl Peroxide 2.5% gel 15-20gms. MD/PS/332 Enquiry 01/06/2022 at 15.00 hrs 01/06/2022 at 15.30 hrs
2924/05/2022 ISOSORBIDE 5 MONONITRATE 10 MG. MD/PS/331 Enquiry 01/06/2022 at 15.00 hrs 01/06/2022 at 15.30 hrs
2824/05/2022 Dicyclomine + Activated Simethicone 30ml. MD/PS/330 Enquiry 01/06/2022 at 15.00 hrs 01/06/2022 at 15.30 hrs
2724/05/2022 Multivitamin Syrup 100-200ml. MD/PS/329 Enquiry 01/06/2022 at 15.00 hrs 01/06/2022 at 15.30 hrs
2624/05/2022 Clobetasol Prop+ 3% Salicylicacid lotion MD/PS/328 Enquiry 01/06/2022 at 15.00 hrs 01/06/2022 at 15.30 hrs
2524/05/2022 Measles Mumps & Rubella Vaccine (MMR). MD/PS/323 Enquiry 27/05/2022 at 15.00 hrs 27/05/2022 at 15.30 hrs
2424/05/2022 Ringerlactate Sol. 500ml Glass Bottle /Balance Salt Solution in glass Bottle 500ml. MD/PS/322 Enquiry 27/05/2022 at 15.00 hrs 27/05/2022 at 15.30 hrs
2324/05/2022 1) Plain Tube with Clot Activator.. 2) Urea liquid stable ( UV GLDH kinetic. 3) Calcium (Monovial Arsenazo III). MD/PS/311 Enquiry 27/05/2022 at 15.00 hrs 27/05/2022 at 15.30 hrs
2224/05/2022 1) AlkalinePhosphatase (To be supplied in monovial) (Pack of 50 x 1ml/ 10 x 1.1ml). 2) Total Protein Kit (Pack Of 1 x 150ml/1 x 75ml ). 3) Chloride Test Kits (Pack of 1 x 75ml-1 x 50ml). MD/PS/310 Enquiry 27/05/2022 at 15.00 hrs 27/05/2022 at 15.30 hrs
2124/05/2022 ECG Paper Rolls 105mm x 20 mtrs for Model True Beat 100F ECG Machine MD/PS/308 Enquiry 27/05/2022 at 15.00 hrs 27/05/2022 at 15.30 hrs
2024/05/2022 1) Disposable Lumber Puncture No.25 G Needle. 2) Eye Shield autoclave to withstand temperature of 100 deg. Celcius translucent and unbreakable. 3) Lancetip Sterile Blade(Opthalmic micro surgical full handle knife) 4) 3 Way Connections with Stop Cork 5) Disposable 50cc Syrings without Needle. 6) Antiseptic Spray for OT 500ml / 250ml Instant Spray disinfectant for medical devices. MD/PS/307 Enquiry 27/05/2022 at 15.00 hrs 27/05/2022 at 15.30 hrs
1924/05/2022 Antiseptic Soap 75gms.(Dettol Soap). MD/PS/306 Enquiry 27/05/2022 at 15.00 hrs 27/05/2022 at 15.30 hrs
1819/05/2022 HBAIC Kit 24 cards MD/Stores/301 Enquiry 25/05/2022 at 15.00 hrs 25/05/2022 at 15.30 hrs
1719/05/2022 Clobetasol Propionate Cream MD/PS/303 Enquiry 25/05/2022 at 15.00 hrs 25/05/2022 at 15.30 hrs
1619/05/2022 Chlordiazapoxide 10mg. Tab MD/PS/318 Enquiry 25/05/2022 at 15.00 hrs 25/05/2022 at 15.30 hrs
1519/05/2022 Lorazepam 2mg. Tab MD/PS/319 Enquiry 25/05/2022 at 15.00 hrs 25/05/2022 at 15.30 hrs
1419/05/2022 Tab. Hydrochlorthiazide 25mg MD/PS/321 Enquiry 25/05/2022 at 15.00 hrs 25/05/2022 at 15.30 hrs
1319/05/2022 Neostigmine methylsulphate inj 0.5mg/ml MD/PS/320 Enquiry 25/05/2022 at 15.00 hrs 25/05/2022 at 15.30 hrs
1218/05/2022 Isoflurane Liquid 250ml bottle MD/PS/300 Enquiry 27/05/2022 at 15.00 hrs 27/05/2022 at 15.30 hrs
1118/05/2022 Hydroquinone 4% Cream (10-30gms) MD/PS/317 Enquiry 25/05/2022 at 15.00 hrs 25/05/2022 at 15.30 hrs
1018/05/2022 Topical Antibiotics-Clindamycin Gel 1% 10-20 gms tube MD/PS/316 Enquiry 25/05/2022 at 15.00 hrs 25/05/2022 at 15.30 hrs
918/05/2022 Tab. Drifenacin 7.5mg MD/PS/315 Enquiry 25/05/2022 at 15.00 hrs 25/05/2022 at 15.30 hrs
818/05/2022 Tab. Acetyl Salicylic Acid 75mg MD/PS/314 Enquiry 25/05/2022 at 15.00 hrs 25/05/2022 at 15.30 hrs
718/05/2022 Tab. Carvedilol (3.125mg) MD/PS/313 Enquiry 25/05/2022 at 15.00 hrs 25/05/2022 at 15.30 hrs
618/05/2022 Tab. Pirfemidone 200mg MD/PS/304 Enquiry 25/05/2022 at 15.00 hrs 25/05/2022 at 15.30 hrs
517/05/2022 Non Absorbable Surgical Suture 10-0,NW 3718 Needle 6mm 3/8 circle MD/PS/297 Limited Tender 27.05.2022 at 1500 hrs 27.05.2022 at 1530 hrs
417/05/2022 Calcium 500mg & Vit D3. Tabs MD/PS/296 Limited Tender 27.05.2022 at 1500 hrs 27.05.2022 at 1530 hrs
317/05/2022 Tab.Ramipril 5mg MD/PS/295 Limited Tender 27.05.2022 at 1500 hrs 27.05.2022 at 1530 hrs
212/05/2022 Supply, Installation & Commissioning of ENT OPD Unit with Chairs to Mormugao Port Authority Hospital at Mormugao, Goa. MPT-MD-PS-0294 Open Rs. 2,60,000.00 01.06.2022 at 1500 hrs 01.06.2022 at 1600 hrs
109/05/2022 Tab. Gliclazide XR 60mg. MD/PS/279 Limited Tender 27.05.2022 at 1500 hrs 27.05.2022 at 1530 hrs
Civil Engineering Department

Civil-Engineering-Department

Sr. No.Date of UploadTender TitleTender No.Type of TenderEstimated Cost (Rs.) Bid Submission Closing Date and TimeTender Opening Date and TimeDownload NIT
1226/05/2022 Reconstruction of compound wall on West side of Adani Weigh Bridge at GCB CE/Q-21(R1)/2022Quotation Rs. 4,44,901.00 02.06.2022 at 15.00 hrs 02.06.2022 at 15.30 hrs
26/05/2022Schedule of Quantities and Rates
1126/05/2022 Enclosure for baggage scanners at Cruise Terminal building at Harbour CE/Q-25/2022Quotation Rs. 2,00,090.00 02.06.2022 at 15.00 hrs 02.06.2022 at 15.30 hrs
1025/05/2022 Providing Galvalume sheet roofing and other miscellaneous work for CISF Barracks No 1&2 at Headland CE/10/2022 e-TENDER Rs. 20,35,309.00 13.06.2022 at 15.00 hrs 14.06.2022 at 15.00 hrs
924/05/2022 Cleaning of side Drains / cross drains in R&D yard & marshalling yard on MPT’s railways BG siding CE/Q-24/2022Quotation Rs. 1,16,247.00 31.05.2022 at 15.00 hrs 31.05.2022 at 15.30 hrs
820/05/2022 Repairs to 11 KV Substation at CHLD building, Harbour - Cover 1 (Technical Bid) CE/Q-22/2022Quotation Rs. 3,22,552.00 /- 27.05.2022 at 15.00 hrs 27.05.2022 at 15.30 hrs
Repairs to 11 KV Substation at CHLD building, Harbour - Cover.No.2 (Price Bid)
719/05/2022 Emergency Premonsoon & Monsoon maintenance /Repair works as and when required of staff Quarters and other buildings at Headland CE/Q-23/2022Quotation 01.06.2022 at 15.00 hrs 01.06.2022 at 15.30 hrs
618/05/2022 Annual Maintenance Contract for Harbour section CE/06(R1)/2022e-TENDER Rs. 27,47,557/- 25.05.2022 at 11.00 hrs 26.05.2022 at 11.30 hrs
518/05/2022 Construction of Compound Wall near Gate no. 9 CE/11/2022e-TENDER Rs. 13,50,579.81/- 01.06.2022 at 15.00 hrs 02.06.2022 at 15.30 hrs
417/05/2022 Providing rain water drainage in R & D yard near silos and other miscellaneous works - Cover 1 (Technical Bid) CE/Q-15(R1)/2022TENDER Rs. 4, 69,106 /- 24.05.2022 at 15.00 hrs 24.05.2022 at 15.30 hrs
Providing rain water drainage in R & D yard near silos and other miscellaneous works - Cover.No.2 (Price Bid)
312/05/2022 Redevelopment of Berth No.9 and Three Barge Berths at Mormugao Port, Goa on DBFOT Basis CE/09/2022 e-TENDER Rs. 842.00 crores 30.06.2022 at 15.00 hrs 01.07.2022 at 15.30 hrs
210/05/2022 Annual Maintenance and upkeep of Gardens,lawns and other areas in & around of MPA Guest House,MRH-I,HOD Enclave,Children’s Park & AVOC at Headland for Period of two years - (2022-2023& 2023-2024) CE/08/2022 e-TENDER Rs. 70,70,673.00 26.05.2022 at 11.00 hrs 27.05.2022 at 11.30 hrs
106/05/2022 Removal of garbage from MPA estate and transportation to Municipal (MSW) treatment site at Sada for two years. (2022-2024) CE/07/2022 e-TENDER Rs. 13,79,621.00 26.05.2022 at 15.00 hrs 27.05.2022 at 15.30 hrs
Mechanical Engineering Department

Mechanical-Engineering-Department

Projection of procurement for the years 2020-21 & 2021-22 in Materials Division of Mechanical Engineering Department

2. Projection for Non-Stock Items
Sr. No.Date of UploadTender TitleTender No.Type of TenderEstimated Cost (Rs.) Bid Submission Closing Date and TimeTender Opening Date and TimeDownload NIT
1927/05/2022 1. Printing and supply of Log Book Registers for vehicles. Each register consisting of 200 sheets (400 pages) on 12.4 Kgs. ledger paper in size 210 x 340 mm. The register should be centre binding have thick cardboard on both the sides with calicloth. Printing in bilingual as per the specimen. 2. Box Files in special size of 370 X 275 X 85 mm with minor tolerance, of special quality thick card board with STEEL adjustable lever and printing of labels as per our specimen. 3. Offset printing and supply of Gate Pass books for Contractor's materials (without payment of Dock Entry fees), FORM-C, in A-4 size on 57-62gsm paper in triplicate. The original copy on pink colour, duplicate copy on green colour and triplicate copy on white colour paper. The first two copies should be perforated at the top. Each book should be supplied in the form of bound books with chart paper top cover with printing of book number, form number and cardboard bottom, consisting of 100 sets i.e. 300 sheets, duly numbered with book numbers as well as serial numbers on each set. Printing in bi-lingual as per the specimen. MM/16/0044 Enquiry 03/06/2022 at 15.00 hrs 03/06/2022 at 15.30 hrs
1826/05/2022 White Maplitho copier (Xerox) paper 75gsm, in A-4 size (210 mm X 297 mm) in reams of 500 sheets cut in uniform size, Mill packed. MM/16/0043 Enquiry 08/06/2022 at 15.00 hrs 08/06/2022 at 15.30 hrs
1725/05/2022 Supply of Electrical 09 items MM/08/0038 Enquiry 08/06/2022 at 15.00 hrs 08/06/2022 at 15.30 hrs
1625/05/2022 1. Supply of Registers with ruled sheets of 96 pages on 57gsm deluxe white paper (ruled sheets) of size 190 X 320 mm, with hardbound front & back cover, calicloth bound, light blue colour paper at top and bottom, black white printing in bilingual as per our specimen on top. 2. Supply of Registers with white ruled sheets of 288 pages on 57gsm white paper in size 190 X 320 mm with front & back cover in white colour paper, cali-cloth bound and printing in Bilingual on the front cover as per the specimen. 3. Supply of Envelopes with polythene layer, reinforced on inside of 14.2 Kgs ledger paper (green) size of envelope 380 X 280mm with multi colour MPA logo. Printing as per instruction in Bilingual. 4. Printing and supply of Application for grant of GPF/CPF advance forms, in the form of pullout pads. Each pad consisting of 200 sheets, on 57gsm white paper of size 210 X 330 mm (Printing on both the sides) MM/16/0041 Enquiry 08/06/2022 at 15.00 hrs 08/06/2022 at 15.30 hrs
1524/05/2022 Supply of Oil Spill Dispersant (OSD) (chemical dispersant), Type: OSD II/III form (toxicity limits tested for 96 hours LC50 test method), to use the OSD in coastline water up to 12 Nautical Miles. MM/NS/DC/0042 Enquiry 03/06/2022 at 15.00 hrs 03/06/2022 at 15.30 hrs
1424/05/2022 Supply of Engine Oil, Grade 30, in barrels of 210 litres, with manufacturers Test Certificate. MM/09/0040 Enquiry 01/06/2022 at 15.00 hrs 01/06/2022 at 15.30 hrs
1323/05/2022 Supply of Electrical 16 items MM/08/0037 Enquiry 03/06/2022 at 15.00 hrs 03/06/2022 at 15.30 hrs
1219/05/2022 Supply of Digital Earth Tester with the following features, specifications & accessories:- 1. Features:- i. Earth Resistance: 0-20Ω/0-200Ω/0-2000Ω. ii. Earth Voltage: 0-200V AC. 2. Specifications:- i. Accuracy: Earth Resistance: ±2%rdg + 2dgts) or ± 0.1Ω which is greater. ii. Accuracy: Earth Voltage: ±(1%rdg +2dgts). 3. Accessories:- i. Test leads (AL-36: red – 15m, yellow – 10m & green. ii. Heavy duty case. iii. Batteries. iv. Instruction Manual. 4. Warranty:- Manufacturer’s standard warranty MM/NS/CME/0039 Enquiry 03/06/2022 at 15.00 hrs 03/06/2022 at 15.30 hrs
1119/05/2022 Providing Project Management Consultancy Services for purchase of solar power through Open Access Arrangement CME/XEN(E-P)/e-tender/2022/11 e-TENDER 13/06/2022 at 11.30 hrs 14/06/2022 at 11.30 hrs
1018/05/2022 1) Printing and supply of Books Requisition cum Issue note pads. Each pad consisting of 200 sheets, on 57gsm white paper in size 140 X 320 mm with perforation on LHS. Printing on both the sides as per the specimen. 2) Supply of Flat office files in standard size [approx. 355 mm (length) X 255 mm (width)] of superior quality SIRPUR make card board (approx. 31.5 kg weight per Gross board) The files should be supplied with good quality rustless gold clips and one additional eyelet of brass or aluminium coated metal should be provided on front side of files. Further 4" width cali-cloth should be pasted in centre of the files and 2" to 3" width cali-cloth should be pasted in vertical edges of the files. The printing in bilingual should be done on the front cover of the files as per the specimen (printing on both side of front cover) Shade : GREY 3)Supply of Flat office files in standard size [approx. 355 mm (length) X 255 mm (width)] of superior quality SIRPUR make card board (approx. 31.5kg weight per Gross board) The files should be supplied with good quality rustless gold clips and one additional eyelet of brass or aluminium coated metal should be provided on front side of files. Further 4" width cali-cloth should be pasted in centre of the files and 2" to 3" width cali-cloth should be pasted in vertical edges of the files. The printing in bilingual should be done on the front cover of the files as per the specimen. (printing on both side of front cover) Shade : ORANGE. 4)Offset printing and supply of Letter head pads (Large) for Administrative office. Each pad consisting of 100 sheets on 80gsm royal executive bond paper of size A-4 (210X297 mm) with new multi colour logo. The pads should be supplied in the form of pullout type pads, with good quality chart paper top cover and card support at the bottom. Printing in bi-lingual, one side as per the specimen. 5)Printing and supply of Casual Leave (CL) forms, in the form of pullout type pads. Each pad consisting of 200 sheets on 68-70gsm Light Pink colour paper of size 210 X 297 mm. Printing on one side in bilingual as per the specimen. MM/16/0035 Enquiry 01.06.2022 at 15.00 hrs 01.06.2022 at 15.30 hrs
917/05/2022 Supply of assorted P-Way material for railway maintenance MM/NS/CE/0025 e-TENDER 19.14 Lakhs (exclusive of GST) 08/06/2022 at 11.30 hrs 09/06/2022 at 11.30 hrs
817/05/2022 Supply of water pump & coupling as per specifications MM/NS/CME/0036 Enquiry 27/05/2022 at 15.00 hrs 27/05/2022 at 15.30 hrs
713/05/2022 LED 200W floodlight fixture, COB type, 240V, inbuilt LED driver, CCT>5700K, Efficacy>110Lm/W, die cast Aluminium body, IP65. MM/NS/CME/0034 Enquiry 27/05/2022 at 15.00 hrs 27/05/2022 at 15.30 hrs
613/05/2022 Supply of Starter and Spares (05 items) MM/NS/CME/0032 Enquiry 03/06/2022 at 15.00 hrs 03/06/2022 at 15.30 hrs
512/05/2022 1. Polyester labels size 85 x 54 mm including Resin Ribbon. 2. Mifare Cards, PVC, 85x54mm, with pre-printed backside (colour & B/W), white, for use in MPT, as per specifications at Annexure-A MM/NS/TM/014 Budgetary Quotation 25/05/2022
412/05/2022 Supply in 25 kg bag each of White waste cotton cloth pieces to be used as Rags for cleaning. Pieces should be of cotton material only free from pins, metallic scrap fillings, buttons etc. No undergarments should be present in the white waste cotton cloth pieces. MM/15/0033 Enquiry 25/05/2022 at 15.00 hrs 25/05/2022 at 15.30 hrs
310/05/2022 1. Aluminium crimping lugs suitable for cables of size 25 sq.mm. 2. Moulded case circuit breaker DH-100 with thermal release range 25 - 32 A. 3. MCB 32 Amps, Four Pole, 440 V, 4. General purpose epoxy compound in 1 kg pack. 5. HRC fuse fittings 32 Amps (SM 32H panel type). 6. Thermal O/L Relay with alarm contact and dependent reset for MK-1 range 9-14A MM/38/0030 Enquiry 27/05/2022 at 15.00 hrs 27/05/2022 at 15.30 hrs
209/05/2022 1. Ink Cartridge for EPSON AIO Printer model L-565 (To be supplied in pack of Four cartridges) 2. Toner for Ricoh 3025 photo copier machine (2320D) 3. Cartridge No. 337 for Canon Printer, Model MF221d. MM/16/0031 Enquiry 25/05/2022 at 15.00 hrs 25/05/2022 at 15.30 hrs
109/05/2022 Supply of Manual Spreaders for Crane as follows:- 1. For lifting 20 feet ISO Container – 1 No. 2. For lifting 40 feet ISO Container – 1 No. MM/NS-50/CME/0028 E-Tender Rs.12.00 Lakhs (exclusive of GST) 25.06.2022 at 11.30 hrs 26.06.2022 at 11.30 hrs
09/05/2022 Drawing 1
09/05/2022 Drawing 2
Traffic Management Department

Traffic Management Department

Sr. No.Date of UploadTender TitleTender No.Type of TenderEstimated Cost (Rs.) Bid Submission Closing Date and TimeTender Opening Date and Time Download NIT
118/04/2022Establishing Port based LNG/LPG bunkering station at Dabolim plot of the Port E-Tender 13.05.2022 at 15.00 hrs 16.05.2021 at 15.00 hrs
Marine Department

Marine-Department

Sr. No.Date of UploadTender TitleTender No.Type of TenderEstimated Cost (Rs.) Bid Submission Closing Date and TimeTender Opening Date and Time Download NIT
Tenders from Ministry/IPA and Other Organisations

Tenders from Ministry/IPA and Other Organisations

Sr. No.Date of UploadTender TitleTender No.Type of TenderBid Submission Closing Date and TimeTender Opening Date and Time Download NIT
114/05/2022 Global Expression of Interest for onboarding Logistics Service Providers with NL Marine as Latch-Ons. EOI30.05.2022 at 13.30 hrs
231/07/2021 Invitation for Expression of Interest (EoI) “Development of Seafarers Centre in Chennai Port on Public-Private-Partnership (PPP) mode”. EOI 18.08.2021